ADDS METAR Data INFO
IDs: Format: Raw Decoded Include TAF

Data at: 0145 UTC 17 Oct 2017

KCKF 170135Z AUTO 36004KT 10SM CLR 19/12 A3011 RMK AO2 T01920120
KCKF 170115Z AUTO 36003KT 10SM CLR 19/13 A3011 RMK AO2 T01860128
KCKF 170055Z AUTO 35003KT 10SM CLR 18/13 A3010 RMK AO2 T01840131
KCKF 170035Z AUTO 36004KT 10SM CLR 18/14 A3009 RMK AO2 T01810135
KCKF 170015Z AUTO 00000KT 10SM CLR 19/13 A3009 RMK AO2 T01870133
KCKF 162355Z AUTO 00000KT 10SM CLR 20/13 A3008 RMK AO2 T01960126 10279 20196
KCKF 162335Z AUTO 00000KT 10SM CLR 21/12 A3007 RMK AO2 T02050116
KCKF 162315Z AUTO 00000KT 10SM CLR 22/11 A3006 RMK AO2 T02180105
KCKF 162255Z AUTO 36005KT 10SM CLR 23/10 A3005 RMK AO2 T02310099
KCKF 162235Z AUTO 35009KT 10SM CLR 24/10 A3004 RMK AO2 T02400099
KCKF 162215Z AUTO 35007KT 10SM CLR 25/10 A3004 RMK AO2 T02450099
KCKF 162155Z AUTO 35009G14KT 10SM CLR 25/12 A3002 RMK AO2 T02530123
KCKF 162135Z AUTO 32009KT 10SM CLR 26/13 A3002 RMK AO2 T02580130
KCKF 162115Z AUTO 35010KT 10SM CLR 26/12 A3002 RMK AO2 T02600124
KCKF 162055Z AUTO 35009KT 10SM CLR 26/14 A3002 RMK AO2 T02600136
KCKF 162035Z AUTO 36007KT 10SM CLR 27/16 A3001 RMK AO2 T02710159
KCKF 162015Z AUTO 35009KT 10SM CLR 27/17 A3001 RMK AO2 T02720167
KCKF 161955Z AUTO 01006KT 10SM SCT050 27/17 A3001 RMK AO2 T02700171
KCKF 161935Z AUTO 34009KT 10SM BKN050 28/18 A3001 RMK AO2 T02750178
KCKF 161915Z AUTO 36006KT 310V030 10SM SCT027 SCT043 BKN050 28/18 A3001 RMK AO2 T02760181
KCKF 161855Z AUTO 33007KT 10SM SCT027 BKN040 OVC050 27/18 A3002 RMK AO2 T02710183
KCKF 161835Z AUTO 34010KT 10SM BKN033 OVC039 27/18 A3003 RMK AO2 T02720181
KCKF 161815Z AUTO 01007G14KT 10SM OVC029 27/18 A3004 RMK AO2 T02670184
KCKF 161755Z AUTO 36009KT 10SM OVC025 28/19 A3005 RMK AO2 T02760191 10282 20217
KCKF 161735Z AUTO 35008KT 10SM SCT019 OVC025 27/19 A3006 RMK AO2 T02650191
KCKF 161715Z AUTO 34008KT 10SM OVC018 27/19 A3007 RMK AO2 T02650193
KCKF 161655Z AUTO 35009KT 10SM OVC016 26/20 A3007 RMK AO2 T02610197
KCKF 161635Z AUTO 34010KT 10SM OVC020 27/21 A3007 RMK AO2 T02680213
KCKF 161615Z AUTO 01004KT 10SM OVC018 28/21 A3007 RMK AO2 T02750209
KCKF 161555Z AUTO 36006KT 10SM BKN018 28/22 A3007 RMK AO2 T02800215
KCKF 161535Z AUTO 36006KT 10SM SCT016 BKN120 28/22 A3006 RMK AO2 T02770218
KCKF 161515Z AUTO 00000KT 10SM OVC110 27/22 A3007 RMK AO2 T02730219
KCKF 161455Z AUTO 33005KT 10SM BKN110 27/22 A3006 RMK AO2 T02700219
KCKF 161435Z AUTO 33003KT 10SM OVC110 27/22 A3007 RMK AO2 T02660221
KCKF 161415Z AUTO 30003KT 10SM OVC110 27/22 A3007 RMK AO2 T02650220
KCKF 161355Z AUTO 32003KT 10SM OVC110 27/22 A3006 RMK AO2 T02650218
KCKF 161335Z AUTO 00000KT 10SM SCT100 26/22 A3006 RMK AO2 T02570220
KCKF 161315Z AUTO 00000KT 10SM CLR 25/22 A3005 RMK AO2 T02470220
KCKF 161255Z AUTO 00000KT 10SM CLR 24/22 A3005 RMK AO2 T02360217
KCKF 161235Z AUTO 00000KT 10SM CLR 23/21 A3005 RMK AO2 T02280212
KCKF 161215Z AUTO 00000KT 10SM CLR 23/21 A3004 RMK AO2 T02250210
KCKF 161155Z AUTO 00000KT 10SM CLR 22/20 A3004 RMK AO2 T02170202 10226 20213
KCKF 161135Z AUTO 00000KT 10SM CLR 22/20 A3004 RMK AO2 T02160202
KCKF 161115Z AUTO 00000KT 10SM CLR 22/20 A3004 RMK AO2 T02170202
KCKF 161055Z AUTO 00000KT 10SM CLR 22/20 A3003 RMK AO2 T02200203
KCKF 161035Z AUTO 00000KT 10SM CLR 22/21 A3003 RMK AO2 T02210206
KCKF 161015Z AUTO 00000KT 10SM CLR 22/20 A3003 RMK AO2 T02180202
KCKF 160955Z AUTO 00000KT 10SM CLR 22/21 A3002 RMK AO2 T02210205
KCKF 160935Z AUTO 00000KT 10SM SCT080 22/20 A3002 RMK AO2 T02200202
KCKF 160915Z AUTO 00000KT 10SM OVC080 22/21 A3003 RMK AO2 T02220205
KCKF 160855Z AUTO 00000KT 10SM BKN080 22/20 A3004 RMK AO2 T02180202
KCKF 160835Z AUTO 00000KT 10SM CLR 22/20 A3004 RMK AO2 T02200203
KCKF 160815Z AUTO 00000KT 10SM CLR 22/20 A3004 RMK AO2 T02200202
KCKF 160755Z AUTO 00000KT 10SM CLR 22/21 A3004 RMK AO2 T02220205
KCKF 160735Z AUTO 00000KT 10SM SCT110 22/21 A3004 RMK AO2 T02220206
KCKF 160715Z AUTO 00000KT 10SM CLR 22/21 A3005 RMK AO2 T02220207
KCKF 160655Z AUTO 00000KT 10SM SCT120 22/21 A3005 RMK AO2 T02230209
KCKF 160635Z AUTO 00000KT 10SM SCT120 22/21 A3006 RMK AO2 T02220207
KCKF 160615Z AUTO 00000KT 10SM CLR 23/21 A3006 RMK AO2 T02250209
KCKF 160600Z AUTO 00000KT 10SM CLR 23/21 A3006 RMK AO2 T02250208
KCKF 160535Z AUTO 00000KT 10SM CLR 23/21 A3006 RMK AO2 T02270211
KCKF 160515Z AUTO 00000KT 10SM CLR 23/21 A3006 RMK AO2 T02270210
KCKF 160455Z AUTO 00000KT 10SM CLR 23/21 A3006 RMK AO2 T02270210
KCKF 160435Z AUTO 00000KT 10SM CLR 23/21 A3006 RMK AO2 T02300212
KCKF 160415Z AUTO 00000KT 10SM CLR 23/21 A3006 RMK AO2 T02310213
KCKF 160355Z AUTO 00000KT 10SM CLR 23/21 A3007 RMK AO2 T02340212
KCKF 160335Z AUTO 00000KT 10SM CLR 24/22 A3007 RMK AO2 T02360215
KCKF 160315Z AUTO 00000KT 10SM CLR 24/22 A3007 RMK AO2 T02380216
KCKF 160255Z AUTO 00000KT 10SM CLR 24/22 A3007 RMK AO2 T02400216
KCKF 160235Z AUTO 00000KT 10SM CLR 24/22 A3007 RMK AO2 T02430218
KCKF 160215Z AUTO 00000KT 10SM CLR 24/22 A3008 RMK AO2 T02410219
KCKF 160155Z AUTO 00000KT 10SM CLR 24/22 A3008 RMK AO2 T02430219
KCKF 160135Z AUTO 13003KT 10SM CLR 24/22 A3006 RMK AO2 T02440217
KCKF 160115Z AUTO 00000KT 10SM CLR 25/22 A3007 RMK AO2 T02490217
KCKF 160055Z AUTO 00000KT 10SM CLR 25/22 A3006 RMK AO2 T02500219
KCKF 160035Z AUTO 00000KT 10SM CLR 25/22 A3006 RMK AO2 T02530221
KCKF 160015Z AUTO 00000KT 10SM CLR 26/22 A3005 RMK AO2 T02550222
KCKF 152355Z AUTO 00000KT 10SM CLR 26/22 A3005 RMK AO2 T02610221 10327 20261
KCKF 152335Z AUTO 00000KT 10SM CLR 27/22 A3004 RMK AO2 T02710219
KCKF 152315Z AUTO 00000KT 10SM CLR 27/22 A3004 RMK AO2 T02700223
KCKF 152255Z AUTO 00000KT 10SM CLR 30/21 A3004 RMK AO2 T02960208
KCKF 152235Z AUTO 13003KT 10SM CLR 31/20 A3004 RMK AO2 T03090197
KCKF 152215Z AUTO 13006KT 10SM CLR 32/19 A3004 RMK AO2 T03160194
KCKF 152155Z AUTO 17003KT 10SM CLR 32/19 A3005 RMK AO2 T03170191
KCKF 152135Z AUTO 00000KT 10SM CLR 32/19 A3006 RMK AO2 T03160192
KCKF 152115Z AUTO 00000KT 10SM CLR 31/19 A3006 RMK AO2 T03120190
KCKF 152055Z AUTO 16003KT 10SM CLR 31/19 A3007 RMK AO2 T03110193
KCKF 152035Z AUTO 15005KT 10SM CLR 32/20 A3007 RMK AO2 T03220195
KCKF 152015Z AUTO 15003KT 10SM SCT070 33/19 A3008 RMK AO2 T03260185
KCKF 151955Z AUTO 12004KT 10SM SCT060 OVC070 33/19 A3008 RMK AO2 T03250192
KCKF 151935Z AUTO 14004KT 10SM SCT038 SCT047 BKN070 32/19 A3009 RMK AO2 T03170193
KCKF 151915Z AUTO 24003KT 10SM SCT038 SCT044 SCT070 31/20 A3010 RMK AO2 T03140195
KCKF 151855Z AUTO 00000KT 10SM SCT036 SCT044 BKN070 32/20 A3011 RMK AO2 T03150196
KCKF 151835Z AUTO 10003KT 10SM SCT034 BKN070 31/20 A3012 RMK AO2 T03110202
KCKF 151815Z AUTO 23005KT 10SM SCT030 BKN070 31/20 A3013 RMK AO2 T03110200
KCKF 151755Z AUTO 00000KT 10SM SCT028 BKN070 31/20 A3014 RMK AO2 T03070204 10309 20215
KCKF 151735Z AUTO 00000KT 10SM SCT026 BKN070 30/21 A3015 RMK AO2 T03000207
KCKF 151715Z AUTO 13004KT 10SM SCT024 30/21 A3016 RMK AO2 T02970208
KCKF 151655Z AUTO 20003KT 10SM CLR 29/21 A3017 RMK AO2 T02940210
KCKF 151635Z AUTO 14005KT 10SM CLR 29/21 A3018 RMK AO2 T02910210
KCKF 151615Z AUTO 14003KT 10SM CLR 28/21 A3019 RMK AO2 T02840208
KCKF 151555Z AUTO 00000KT 10SM SCT019 28/21 A3019 RMK AO2 T02780210
KCKF 151535Z AUTO 13003KT 10SM SCT019 27/21 A3020 RMK AO2 T02700209
KCKF 151515Z AUTO 07003KT 10SM SCT009 26/21 A3020 RMK AO2 T02580211
KCKF 151455Z AUTO 07003KT 10SM BKN009 25/21 A3020 RMK AO2 T02530213
KCKF 151435Z AUTO 06003KT 10SM OVC007 25/21 A3021 RMK AO2 T02450212
KCKF 151415Z AUTO 11004KT 10SM OVC005 24/22 A3021 RMK AO2 T02380215
KCKF 151355Z AUTO 07004KT 10SM OVC003 23/22 A3021 RMK AO2 T02290215